createdAt,value
2023-03-12T00:02:18.051Z,51.75
2023-03-12T00:04:44.705Z,51.40
2023-03-12T00:07:11.345Z,52.08
2023-03-12T00:09:39.161Z,51.37
2023-03-12T00:12:06.464Z,51.50
2023-03-12T00:14:33.459Z,51.09
2023-03-12T00:17:00.210Z,52.02
2023-03-12T00:19:27.403Z,51.37
2023-03-12T00:21:53.958Z,52.00
2023-03-12T00:24:20.529Z,51.64
2023-03-12T00:26:47.108Z,51.90
2023-03-12T00:29:13.752Z,51.50
2023-03-12T00:31:40.397Z,51.39
2023-03-12T00:34:07.055Z,51.19
2023-03-12T00:36:33.788Z,51.07
2023-03-12T00:39:01.248Z,50.57
2023-03-12T00:41:30.216Z,51.02
2023-03-12T00:43:57.472Z,51.18
2023-03-12T00:46:24.539Z,50.34
2023-03-12T00:48:51.195Z,51.25
2023-03-12T00:51:18.442Z,51.13
2023-03-12T00:53:45.055Z,51.16
2023-03-12T00:56:11.721Z,50.95
2023-03-12T00:58:38.452Z,51.08
2023-03-12T01:01:05.603Z,51.09
2023-03-12T01:03:32.230Z,51.06
2023-03-12T01:05:58.825Z,50.58
2023-03-12T01:08:25.535Z,50.72
2023-03-12T01:10:52.205Z,51.16
2023-03-12T01:13:18.978Z,51.04
2023-03-12T01:15:45.608Z,50.57
2023-03-12T01:18:12.161Z,50.74
2023-03-12T01:20:40.694Z,51.46
2023-03-12T01:23:07.749Z,50.75
2023-03-12T01:25:34.796Z,51.18
2023-03-12T01:28:02.006Z,51.22
2023-03-12T01:30:29.065Z,50.72
2023-03-12T01:32:55.613Z,50.99
2023-03-12T01:35:22.375Z,51.00
2023-03-12T01:37:48.889Z,50.63
2023-03-12T01:40:17.541Z,50.94
2023-03-12T01:42:51.418Z,51.26
2023-03-12T01:45:55.940Z,50.99
2023-03-12T01:48:23.351Z,51.28
2023-03-12T01:50:50.431Z,50.63
2023-03-12T01:53:17.642Z,50.70
2023-03-12T01:55:44.413Z,49.81
2023-03-12T01:58:11.358Z,50.52
2023-03-12T02:00:37.988Z,49.80
2023-03-12T02:03:07.449Z,50.24
2023-03-12T02:05:55.623Z,51.09
2023-03-12T02:08:23.481Z,50.25
2023-03-12T02:10:50.237Z,50.72
2023-03-12T02:13:17.322Z,50.07
2023-03-12T02:15:46.292Z,49.88
2023-03-12T02:18:17.872Z,50.38
2023-03-12T02:20:56.381Z,50.07
2023-03-12T02:23:51.458Z,50.86
2023-03-12T02:26:20.578Z,50.58
2023-03-12T02:28:49.793Z,50.57
2023-03-12T02:31:21.472Z,50.14
2023-03-12T02:33:48.124Z,49.83
2023-03-12T02:36:14.686Z,50.71
2023-03-12T02:38:45.348Z,50.26
2023-03-12T02:41:20.792Z,50.28
2023-03-12T02:43:51.871Z,49.60
2023-03-12T02:46:18.839Z,49.49
2023-03-12T02:48:45.411Z,49.97
2023-03-12T02:51:12.051Z,49.98
2023-03-12T02:53:38.799Z,49.84
2023-03-12T02:56:06.872Z,49.06
2023-03-12T02:58:33.502Z,48.92
2023-03-12T03:01:00.999Z,48.63
2023-03-12T03:03:27.620Z,48.89
2023-03-12T03:05:54.237Z,49.48
2023-03-12T03:08:20.834Z,48.81
2023-03-12T03:10:51.292Z,49.22
2023-03-12T03:13:18.105Z,48.83
2023-03-12T03:15:44.717Z,49.08
2023-03-12T03:18:11.333Z,49.51
2023-03-12T03:20:38.572Z,49.03
2023-03-12T03:23:05.178Z,49.71
2023-03-12T03:25:33.203Z,48.77
2023-03-12T03:27:59.871Z,48.52
2023-03-12T03:30:26.427Z,48.43
2023-03-12T03:32:53.794Z,48.58
2023-03-12T03:35:21.989Z,48.27
2023-03-12T03:37:48.719Z,48.14
2023-03-12T03:40:15.284Z,47.97
2023-03-12T03:42:42.216Z,47.57
2023-03-12T03:45:10.372Z,47.34
2023-03-12T03:47:38.694Z,48.12
2023-03-12T03:50:06.189Z,47.59
2023-03-12T03:52:33.071Z,47.60
2023-03-12T03:54:59.789Z,47.82
2023-03-12T03:57:27.410Z,47.83
2023-03-12T03:59:55.007Z,47.63
2023-03-12T04:02:22.351Z,47.83
2023-03-12T04:04:49.300Z,48.10
2023-03-12T04:07:16.308Z,47.82
2023-03-12T04:09:43.485Z,47.83
2023-03-12T04:12:10.712Z,47.82
2023-03-12T04:14:42.668Z,47.63
2023-03-12T04:17:10.265Z,46.81
2023-03-12T04:19:37.030Z,48.01
2023-03-12T04:22:05.145Z,47.37
2023-03-12T04:24:31.739Z,47.42
2023-03-12T04:26:59.102Z,47.88
2023-03-12T04:29:26.420Z,48.57
2023-03-12T04:31:53.684Z,48.89
2023-03-12T04:34:20.665Z,49.27
2023-03-12T04:36:49.616Z,49.32
2023-03-12T04:39:20.126Z,48.41
2023-03-12T04:41:49.428Z,49.21
2023-03-12T04:44:16.469Z,49.25
2023-03-12T04:46:43.446Z,48.32
2023-03-12T04:49:13.653Z,49.23
2023-03-12T04:51:41.887Z,48.96
2023-03-12T04:54:08.848Z,48.08
2023-03-12T04:56:36.761Z,48.48
2023-03-12T04:59:03.760Z,48.34
2023-03-12T05:01:36.009Z,48.39
2023-03-12T05:04:07.384Z,48.86
2023-03-12T05:06:34.351Z,48.89
2023-03-12T05:09:03.120Z,48.97
2023-03-12T05:11:30.170Z,49.34
2023-03-12T05:13:56.785Z,49.75
2023-03-12T05:16:23.807Z,48.86
2023-03-12T05:18:50.707Z,48.44
2023-03-12T05:21:20.549Z,48.49
2023-03-12T05:23:50.132Z,48.95
2023-03-12T05:26:29.153Z,48.93
2023-03-12T05:29:03.944Z,48.54
2023-03-12T05:31:35.507Z,50.57
2023-03-12T05:34:04.916Z,49.86
2023-03-12T05:36:33.655Z,49.87
2023-03-12T05:39:00.162Z,49.02
2023-03-12T05:41:30.258Z,49.13
2023-03-12T05:44:02.877Z,49.27
2023-03-12T05:46:29.683Z,48.93
2023-03-12T05:48:58.711Z,48.62
2023-03-12T05:51:25.480Z,48.85
2023-03-12T05:53:52.286Z,49.11
2023-03-12T05:56:18.982Z,49.98
2023-03-12T05:58:49.428Z,49.70
2023-03-12T06:01:23.703Z,50.04
2023-03-12T06:03:51.710Z,50.21
2023-03-12T06:06:19.280Z,50.97
2023-03-12T06:08:45.890Z,50.41
2023-03-12T06:11:13.186Z,50.85
2023-03-12T06:13:40.260Z,50.95
2023-03-12T06:16:15.866Z,51.45
2023-03-12T06:18:42.433Z,51.61
2023-03-12T06:21:21.976Z,52.03
2023-03-12T06:23:49.593Z,52.19
2023-03-12T06:26:23.650Z,52.63
2023-03-12T06:28:50.918Z,51.80
2023-03-12T06:31:19.359Z,52.38
2023-03-12T06:33:46.243Z,52.16
2023-03-12T06:36:13.219Z,52.01
2023-03-12T06:38:40.251Z,52.45
2023-03-12T06:41:12.712Z,53.26
2023-03-12T06:43:40.028Z,52.35
2023-03-12T06:46:08.789Z,53.07
2023-03-12T06:48:41.219Z,53.05
2023-03-12T06:51:09.361Z,53.34
2023-03-12T06:53:36.586Z,53.35
2023-03-12T06:56:03.911Z,53.46
2023-03-12T06:58:30.691Z,53.28
2023-03-12T07:00:57.539Z,52.75
2023-03-12T07:03:24.506Z,52.74
2023-03-12T07:05:51.757Z,53.41
2023-03-12T07:08:18.933Z,53.97
2023-03-12T07:10:46.270Z,54.21
2023-03-12T07:13:13.216Z,55.03
2023-03-12T07:15:40.108Z,55.11
2023-03-12T07:18:11.465Z,55.38
2023-03-12T07:20:40.470Z,55.35
2023-03-12T07:23:07.141Z,55.94
2023-03-12T07:25:38.655Z,57.56
2023-03-12T07:28:06.315Z,58.15
2023-03-12T07:30:33.597Z,57.91
2023-03-12T07:33:01.870Z,59.18
2023-03-12T07:35:29.461Z,59.16
2023-03-12T07:37:56.375Z,58.86
2023-03-12T07:40:23.198Z,58.91
2023-03-12T07:42:53.056Z,59.34
2023-03-12T07:45:20.626Z,60.25
2023-03-12T07:47:47.766Z,60.67
2023-03-12T07:50:15.700Z,60.12
2023-03-12T07:52:42.517Z,59.49
2023-03-12T07:55:10.395Z,61.00
2023-03-12T07:57:37.813Z,61.18
2023-03-12T08:00:07.332Z,61.39
2023-03-12T08:02:38.866Z,61.45
2023-03-12T08:05:06.288Z,63.30
2023-03-12T08:07:34.993Z,63.65
2023-03-12T08:10:03.441Z,64.36
2023-03-12T08:12:30.191Z,65.01
2023-03-12T08:14:56.813Z,65.56
2023-03-12T08:17:23.508Z,65.89
2023-03-12T08:19:49.984Z,66.77
2023-03-12T08:22:17.052Z,66.47
2023-03-12T08:24:44.228Z,67.26
2023-03-12T08:27:12.263Z,68.27
2023-03-12T08:29:40.193Z,68.20
2023-03-12T08:32:08.093Z,68.43
2023-03-12T08:34:35.067Z,68.75
2023-03-12T08:37:01.716Z,69.39
2023-03-12T08:39:28.751Z,69.40
2023-03-12T08:41:55.584Z,69.78
2023-03-12T08:44:23.369Z,69.12
2023-03-12T08:46:50.520Z,69.81
2023-03-12T08:49:17.170Z,70.26
2023-03-12T08:51:43.680Z,70.44
2023-03-12T08:54:10.195Z,71.12
2023-03-12T08:56:41.885Z,71.86
2023-03-12T08:59:09.774Z,72.85
2023-03-12T09:01:36.437Z,73.10
2023-03-12T09:04:04.062Z,72.81
2023-03-12T09:06:30.819Z,72.86
2023-03-12T09:08:57.727Z,73.79
2023-03-12T09:11:24.433Z,74.27
2023-03-12T09:14:26.565Z,75.36
2023-03-12T09:16:39.038Z,75.69
2023-03-12T09:19:05.785Z,77.30
2023-03-12T09:21:32.491Z,78.60
2023-03-12T09:23:59.292Z,79.05
2023-03-12T09:26:25.966Z,78.74
2023-03-12T09:28:52.568Z,80.42
2023-03-12T09:31:19.205Z,81.14
2023-03-12T09:33:45.800Z,82.65
2023-03-12T09:36:12.510Z,85.17
2023-03-12T09:38:39.147Z,86.18
2023-03-12T09:41:06.415Z,89.41
2023-03-12T09:43:43.063Z,89.96
2023-03-12T09:46:19.968Z,94.19
2023-03-12T09:48:48.293Z,93.02
2023-03-12T09:51:27.270Z,93.97
2023-03-12T09:53:57.680Z,95.08
2023-03-12T09:56:26.777Z,94.80
2023-03-12T09:58:55.549Z,96.79
2023-03-12T10:01:39.011Z,96.42
2023-03-12T10:04:13.169Z,98.44
2023-03-12T10:06:47.930Z,96.91
2023-03-12T10:09:37.861Z,98.35
2023-03-12T10:12:23.392Z,100.00
2023-03-12T10:15:16.117Z,100.00
2023-03-12T10:18:21.118Z,100.00
2023-03-12T10:21:18.797Z,100.00
2023-03-12T10:23:53.973Z,100.00
2023-03-12T10:26:39.788Z,100.00
2023-03-12T10:29:15.872Z,100.00
2023-03-12T10:31:48.452Z,100.00
2023-03-12T10:34:46.555Z,100.00
2023-03-12T10:37:18.664Z,100.00
2023-03-12T10:39:45.838Z,100.00
2023-03-12T10:42:21.424Z,100.00
2023-03-12T10:44:52.463Z,100.00
2023-03-12T10:47:39.737Z,100.00
2023-03-12T10:50:18.084Z,100.00
2023-03-12T10:52:46.629Z,100.00
2023-03-12T10:55:26.397Z,100.00
2023-03-12T10:57:53.610Z,100.00
2023-03-12T11:00:26.669Z,100.00
2023-03-12T11:03:19.004Z,100.00
2023-03-12T11:05:51.952Z,100.00
2023-03-12T11:08:29.208Z,100.00
2023-03-12T11:10:58.666Z,100.00
2023-03-12T11:13:39.655Z,100.00
2023-03-12T11:16:18.579Z,100.00
2023-03-12T11:19:01.331Z,100.00
2023-03-12T11:21:29.798Z,100.00
2023-03-12T11:23:56.225Z,100.00
2023-03-12T11:26:33.277Z,100.00
2023-03-12T11:29:04.954Z,100.00
2023-03-12T11:32:00.919Z,100.00
2023-03-12T11:34:31.416Z,100.00
2023-03-12T11:37:28.983Z,100.00
2023-03-12T11:40:13.654Z,100.00
2023-03-12T11:43:03.286Z,100.00
2023-03-12T11:45:56.278Z,100.00
2023-03-12T11:48:36.421Z,100.00
2023-03-12T11:51:06.033Z,100.00
2023-03-12T11:53:57.547Z,100.00
2023-03-12T11:56:28.942Z,100.00
2023-03-12T11:59:21.380Z,100.00
2023-03-12T12:01:57.120Z,100.00
2023-03-12T12:04:38.885Z,100.00
2023-03-12T12:07:47.584Z,100.00
2023-03-12T12:10:35.921Z,100.00
2023-03-12T12:13:28.384Z,100.00
2023-03-12T12:15:55.111Z,100.00
2023-03-12T12:18:42.739Z,100.00
2023-03-12T12:21:31.167Z,100.00
2023-03-12T12:23:57.680Z,100.00
2023-03-12T12:26:30.421Z,100.00
2023-03-12T12:29:05.401Z,100.00
2023-03-12T12:31:38.745Z,100.00
2023-03-12T12:34:25.926Z,100.00
2023-03-12T12:37:09.111Z,100.00
2023-03-12T12:39:42.586Z,100.00
2023-03-12T12:42:18.009Z,100.00
2023-03-12T12:44:49.623Z,100.00
2023-03-12T12:47:32.099Z,100.00
2023-03-12T12:50:00.164Z,100.00
2023-03-12T12:52:27.350Z,100.00
2023-03-12T12:55:13.600Z,100.00
2023-03-12T12:57:50.511Z,100.00
2023-03-12T13:00:55.631Z,100.00
2023-03-12T13:03:24.587Z,100.00
2023-03-12T13:05:57.295Z,100.00
2023-03-12T13:08:42.864Z,100.00
2023-03-12T13:11:20.467Z,100.00
2023-03-12T13:13:50.286Z,100.00
2023-03-12T13:16:46.124Z,100.00
2023-03-12T13:19:18.510Z,100.00
2023-03-12T13:22:26.975Z,100.00
2023-03-12T13:25:14.938Z,100.00
2023-03-12T13:27:45.703Z,100.00
2023-03-12T13:30:34.271Z,100.00
2023-03-12T13:33:03.570Z,100.00
2023-03-12T13:35:35.987Z,100.00
2023-03-12T13:38:05.613Z,100.00
2023-03-12T13:40:32.061Z,100.00
2023-03-12T13:43:07.986Z,100.00
2023-03-12T13:45:54.047Z,100.00
2023-03-12T13:48:22.597Z,100.00
2023-03-12T13:50:58.812Z,100.00
2023-03-12T13:53:34.684Z,100.00
2023-03-12T13:56:09.626Z,100.00
2023-03-12T13:58:47.413Z,100.00
2023-03-12T14:01:18.972Z,100.00
2023-03-12T14:03:49.846Z,100.00
2023-03-12T14:06:22.972Z,100.00
2023-03-12T14:09:07.659Z,100.00
2023-03-12T14:11:44.926Z,100.00
2023-03-12T14:14:29.469Z,100.00
2023-03-12T14:17:01.342Z,100.00
2023-03-12T14:19:34.460Z,100.00
2023-03-12T14:22:05.495Z,100.00
2023-03-12T14:24:36.389Z,100.00
2023-03-12T14:27:05.467Z,100.00
2023-03-12T14:29:51.700Z,100.00
2023-03-12T14:32:26.732Z,100.00
2023-03-12T14:35:12.900Z,100.00
2023-03-12T14:37:51.240Z,100.00
2023-03-12T14:40:26.689Z,100.00
2023-03-12T14:42:53.216Z,100.00
2023-03-12T14:45:23.106Z,100.00
2023-03-12T14:47:55.750Z,100.00
2023-03-12T14:50:29.440Z,100.00
2023-03-12T14:53:18.411Z,100.00
2023-03-12T14:55:45.042Z,100.00
2023-03-12T14:58:18.792Z,100.00
2023-03-12T15:00:57.684Z,100.00
2023-03-12T15:03:26.044Z,100.00
2023-03-12T15:05:53.324Z,100.00
2023-03-12T15:08:20.698Z,100.00
2023-03-12T15:10:55.662Z,100.00
2023-03-12T15:13:24.612Z,100.00
2023-03-12T15:15:54.865Z,100.00
2023-03-12T15:18:26.628Z,100.00
2023-03-12T15:20:54.310Z,100.00
2023-03-12T15:23:22.575Z,100.00
2023-03-12T15:26:08.809Z,100.00
2023-03-12T15:28:35.890Z,100.00
2023-03-12T15:31:16.928Z,100.00
2023-03-12T15:33:44.581Z,100.00
2023-03-12T15:36:20.011Z,100.00
2023-03-12T15:38:48.486Z,100.00
2023-03-12T15:41:25.503Z,100.00
2023-03-12T15:43:55.543Z,100.00
2023-03-12T15:46:23.681Z,100.00
2023-03-12T15:48:53.818Z,100.00
2023-03-12T15:51:33.557Z,100.00
2023-03-12T15:54:25.646Z,100.00
2023-03-12T15:56:52.611Z,100.00
2023-03-12T15:59:25.703Z,100.00
2023-03-12T16:01:54.871Z,100.00
2023-03-12T16:04:23.137Z,100.00
2023-03-12T16:06:51.464Z,100.00
2023-03-12T16:09:26.932Z,99.73
2023-03-12T16:11:56.255Z,99.43
2023-03-12T16:14:34.488Z,99.32
2023-03-12T16:17:01.264Z,98.91
2023-03-12T16:19:30.239Z,97.96
2023-03-12T16:21:56.982Z,96.65
2023-03-12T16:24:23.566Z,95.07
2023-03-12T16:26:58.886Z,93.58
2023-03-12T16:29:34.783Z,92.87
2023-03-12T16:32:02.224Z,91.74
2023-03-12T16:34:28.935Z,90.27
2023-03-12T16:36:55.833Z,91.70
2023-03-12T16:39:23.611Z,91.04
2023-03-12T16:41:50.512Z,90.35
2023-03-12T16:44:21.434Z,90.58
2023-03-12T16:46:48.404Z,89.55
2023-03-12T16:49:17.953Z,88.40
2023-03-12T16:51:44.588Z,89.82
2023-03-12T16:54:12.411Z,88.10
2023-03-12T16:56:46.702Z,87.06
2023-03-12T16:59:25.027Z,85.85
2023-03-12T17:01:51.880Z,85.44
2023-03-12T17:04:18.645Z,85.15
2023-03-12T17:06:45.350Z,83.58
2023-03-12T17:09:11.977Z,84.76
2023-03-12T17:11:39.170Z,85.33
2023-03-12T17:14:16.533Z,85.20
2023-03-12T17:16:43.146Z,84.23
2023-03-12T17:19:09.686Z,82.88
2023-03-12T17:21:37.306Z,82.82
2023-03-12T17:24:04.208Z,81.95
2023-03-12T17:26:30.977Z,82.14
2023-03-12T17:28:57.523Z,81.57
2023-03-12T17:31:24.679Z,80.49
2023-03-12T17:33:51.273Z,80.26
2023-03-12T17:36:17.817Z,79.19
2023-03-12T17:38:44.434Z,78.80
2023-03-12T17:41:25.537Z,78.10
2023-03-12T17:43:52.951Z,77.74
2023-03-12T17:46:19.746Z,76.93
2023-03-12T17:48:46.311Z,76.24
2023-03-12T17:51:12.890Z,76.14
2023-03-12T17:53:39.606Z,75.51
2023-03-12T17:56:06.804Z,75.06
2023-03-12T17:58:33.433Z,74.28
2023-03-12T18:01:00.166Z,76.80
2023-03-12T18:03:26.849Z,76.55
2023-03-12T18:05:53.354Z,76.66
2023-03-12T18:08:20.205Z,76.35
2023-03-12T18:10:48.173Z,77.02
2023-03-12T18:13:14.769Z,77.31
2023-03-12T18:15:41.363Z,76.32
2023-03-12T18:18:08.128Z,76.79
2023-03-12T18:20:39.186Z,76.56
2023-03-12T18:23:06.431Z,76.54
2023-03-12T18:25:33.285Z,77.11
2023-03-12T18:27:59.922Z,77.41
2023-03-12T18:30:28.031Z,77.52
2023-03-12T18:32:54.833Z,78.92
2023-03-12T18:35:22.606Z,78.61
2023-03-12T18:37:51.737Z,78.19
2023-03-12T18:40:18.379Z,77.48
2023-03-12T18:42:45.092Z,77.79
2023-03-12T18:45:12.305Z,77.56
2023-03-12T18:47:39.498Z,76.97
2023-03-12T18:50:07.310Z,77.35
2023-03-12T18:52:34.490Z,76.86
2023-03-12T18:55:01.635Z,79.41
2023-03-12T18:57:28.759Z,79.69
2023-03-12T18:59:55.926Z,78.50
2023-03-12T19:02:23.685Z,78.07
2023-03-12T19:04:51.281Z,78.14
2023-03-12T19:07:19.625Z,78.37
2023-03-12T19:09:46.828Z,77.28
2023-03-12T19:12:14.440Z,77.67
2023-03-12T19:14:41.304Z,77.23
2023-03-12T19:17:29.232Z,76.66
2023-03-12T19:20:16.250Z,76.91
2023-03-12T19:23:02.745Z,76.56
2023-03-12T19:25:49.315Z,80.00
2023-03-12T19:28:36.715Z,78.78
2023-03-12T19:31:08.058Z,79.48
2023-03-12T19:33:34.692Z,80.59
2023-03-12T19:36:01.775Z,82.02
2023-03-12T19:38:28.834Z,82.24
2023-03-12T19:40:57.320Z,81.62
2023-03-12T19:43:24.738Z,80.05
2023-03-12T19:45:52.882Z,81.68
2023-03-12T19:48:19.639Z,81.29
2023-03-12T19:50:46.146Z,81.66
2023-03-12T19:53:13.274Z,81.83
2023-03-12T19:55:39.784Z,82.02
2023-03-12T19:58:06.352Z,82.21
2023-03-12T20:00:32.863Z,82.93
2023-03-12T20:02:59.608Z,82.89
2023-03-12T20:05:26.293Z,81.22
2023-03-12T20:07:52.949Z,80.82
2023-03-12T20:10:19.529Z,80.10
2023-03-12T20:12:46.736Z,82.08
2023-03-12T20:15:13.429Z,81.83
2023-03-12T20:17:40.082Z,81.96
2023-03-12T20:20:08.625Z,82.92
2023-03-12T20:22:36.310Z,81.92
2023-03-12T20:25:06.172Z,80.61
2023-03-12T20:27:34.126Z,81.27
2023-03-12T20:30:00.754Z,82.03
2023-03-12T20:32:28.585Z,82.57
2023-03-12T20:34:55.347Z,83.28
2023-03-12T20:37:21.893Z,82.73
2023-03-12T20:39:48.412Z,83.56
2023-03-12T20:42:15.010Z,82.98
2023-03-12T20:44:41.559Z,83.05
2023-03-12T20:47:08.107Z,83.55
2023-03-12T20:49:34.598Z,82.59
2023-03-12T20:52:01.548Z,82.10
2023-03-12T20:54:28.040Z,81.52
2023-03-12T20:56:54.650Z,81.56
2023-03-12T20:59:21.169Z,81.00
2023-03-12T21:01:47.720Z,81.60
2023-03-12T21:04:14.607Z,81.22
2023-03-12T21:06:41.217Z,81.44
2023-03-12T21:09:07.816Z,81.38
2023-03-12T21:11:34.685Z,80.35
2023-03-12T21:14:01.232Z,79.58
2023-03-12T21:16:27.892Z,79.02
2023-03-12T21:18:58.241Z,78.66
2023-03-12T21:21:25.149Z,77.94
2023-03-12T21:23:51.888Z,77.99
2023-03-12T21:26:18.575Z,77.28
2023-03-12T21:28:46.285Z,79.55
2023-03-12T21:31:15.249Z,80.92
2023-03-12T21:33:42.397Z,80.47
2023-03-12T21:36:11.940Z,80.14
2023-03-12T21:38:40.070Z,79.08
2023-03-12T21:41:08.566Z,78.68
2023-03-12T21:43:35.394Z,79.17
2023-03-12T21:46:06.733Z,78.17
2023-03-12T21:48:34.527Z,79.34
2023-03-12T21:51:06.005Z,78.14
2023-03-12T21:53:32.815Z,78.27
2023-03-12T21:56:01.154Z,78.19
2023-03-12T21:58:29.481Z,77.33
2023-03-12T22:01:13.647Z,77.24
2023-03-12T22:03:42.051Z,77.03
2023-03-12T22:06:09.995Z,77.47
2023-03-12T22:08:37.344Z,77.12
2023-03-12T22:11:05.607Z,76.80
2023-03-12T22:13:32.318Z,76.24
2023-03-12T22:16:01.052Z,76.88
2023-03-12T22:18:28.860Z,77.35
2023-03-12T22:21:05.025Z,76.54
2023-03-12T22:23:31.748Z,77.24
2023-03-12T22:26:01.456Z,75.82
2023-03-12T22:28:28.185Z,76.08
2023-03-12T22:30:59.592Z,75.90
2023-03-12T22:33:26.925Z,76.34
2023-03-12T22:35:54.305Z,75.75
2023-03-12T22:38:21.922Z,76.12
2023-03-12T22:40:49.021Z,76.09
2023-03-12T22:43:15.790Z,76.05
2023-03-12T22:45:42.424Z,75.88
2023-03-12T22:48:09.150Z,75.64
2023-03-12T22:50:35.656Z,75.97
2023-03-12T22:53:02.399Z,74.74
2023-03-12T22:55:29.219Z,74.91
2023-03-12T22:57:55.713Z,75.53
2023-03-12T23:00:22.899Z,75.11
2023-03-12T23:02:50.046Z,74.57
2023-03-12T23:05:16.707Z,74.80
2023-03-12T23:07:43.509Z,75.00
2023-03-12T23:10:10.773Z,74.00
2023-03-12T23:12:37.337Z,74.07
2023-03-12T23:15:04.035Z,73.83
2023-03-12T23:17:30.637Z,74.69
2023-03-12T23:19:57.137Z,73.69
2023-03-12T23:22:23.714Z,73.70
2023-03-12T23:24:50.325Z,73.61
2023-03-12T23:27:16.962Z,74.09
2023-03-12T23:29:43.600Z,74.09
2023-03-12T23:32:10.217Z,73.09
2023-03-12T23:34:36.877Z,73.35
2023-03-12T23:39:30.850Z,73.37
2023-03-12T23:41:57.734Z,73.83
2023-03-12T23:44:24.406Z,73.37
2023-03-12T23:46:51.040Z,72.53
2023-03-12T23:49:17.687Z,72.87
2023-03-12T23:51:45.283Z,73.54
2023-03-12T23:54:11.784Z,72.87
2023-03-12T23:56:39.696Z,73.38
2023-03-12T23:59:08.469Z,72.62
